createdAt,value
2019-05-10T00:01:22.555Z,28.85
2019-05-10T00:04:10.068Z,25.57
2019-05-10T00:06:57.671Z,27.90
2019-05-10T00:09:26.673Z,27.45
2019-05-10T00:11:57.958Z,23.55
2019-05-10T00:17:05.442Z,35.73
2019-05-10T00:22:03.800Z,25.55
2019-05-10T00:24:33.535Z,26.73
2019-05-10T00:27:03.197Z,23.73
2019-05-10T00:29:33.091Z,27.27
2019-05-10T00:32:02.685Z,24.95
2019-05-10T00:34:32.485Z,30.92
2019-05-10T00:37:03.583Z,30.32
2019-05-10T00:39:33.137Z,27.73
2019-05-10T00:42:02.860Z,27.10
2019-05-10T00:44:32.649Z,26.82
2019-05-10T00:47:02.217Z,24.60
2019-05-10T00:49:31.994Z,27.48
2019-05-10T00:52:01.628Z,23.50
2019-05-10T00:54:31.287Z,27.42
2019-05-10T00:57:00.839Z,29.82
2019-05-10T00:59:30.598Z,32.48
2019-05-10T01:02:00.302Z,27.75
2019-05-10T01:04:29.920Z,29.02
2019-05-10T01:06:59.558Z,26.68
2019-05-10T01:09:29.232Z,31.27
2019-05-10T01:11:58.855Z,26.55
2019-05-10T01:14:29.458Z,31.25
2019-05-10T01:16:59.043Z,33.13
2019-05-10T01:19:28.687Z,36.00
2019-05-10T01:21:58.345Z,31.60
2019-05-10T01:24:28.038Z,32.30
2019-05-10T01:26:57.745Z,31.73
2019-05-10T01:29:27.440Z,35.92
2019-05-10T01:31:57.057Z,30.37
2019-05-10T01:34:26.720Z,32.10
2019-05-10T01:36:56.345Z,31.50
2019-05-10T01:39:26.016Z,29.15
2019-05-10T01:41:55.574Z,37.45
2019-05-10T01:44:25.519Z,30.68
2019-05-10T01:46:55.209Z,34.92
2019-05-10T01:49:24.905Z,32.00
2019-05-10T01:51:54.594Z,33.42
2019-05-10T01:54:24.096Z,34.03
2019-05-10T01:56:54.688Z,32.17
2019-05-10T01:59:24.238Z,34.83
2019-05-10T02:01:53.847Z,35.40
2019-05-10T02:04:23.459Z,40.90
2019-05-10T02:06:53.032Z,34.20
2019-05-10T02:09:22.759Z,40.20
2019-05-10T02:11:52.453Z,41.20
2019-05-10T02:14:21.949Z,43.80
2019-05-10T02:16:51.488Z,41.90
2019-05-10T02:19:21.155Z,38.92
2019-05-10T02:21:50.656Z,49.15
2019-05-10T02:24:20.125Z,40.45
2019-05-10T02:26:49.809Z,55.85
2019-05-10T02:29:19.375Z,52.15
2019-05-10T02:31:48.976Z,44.98
2019-05-10T02:34:18.818Z,49.50
2019-05-10T02:36:48.424Z,52.80
2019-05-10T02:39:17.913Z,55.38
2019-05-10T02:41:47.571Z,54.38
2019-05-10T02:44:17.307Z,51.35
2019-05-10T02:46:46.914Z,52.83
2019-05-10T02:49:16.612Z,50.12
2019-05-10T02:51:46.214Z,57.88
2019-05-10T02:54:16.124Z,51.63
2019-05-10T02:56:46.909Z,52.50
2019-05-10T02:59:17.523Z,56.35
2019-05-10T03:01:47.251Z,52.85
2019-05-10T03:04:16.884Z,58.23
2019-05-10T03:06:48.089Z,57.45
2019-05-10T03:09:17.691Z,54.15
2019-05-10T03:11:49.484Z,48.25
2019-05-10T03:14:19.807Z,52.95
2019-05-10T03:16:51.251Z,56.00
2019-05-10T03:19:21.528Z,56.83
2019-05-10T03:22:00.153Z,66.55
2019-05-10T03:24:29.871Z,54.53
2019-05-10T03:26:59.578Z,53.68
2019-05-10T03:29:29.214Z,56.40
2019-05-10T03:31:58.831Z,50.33
2019-05-10T03:34:28.445Z,49.95
2019-05-10T03:36:58.148Z,57.25
2019-05-10T03:39:27.738Z,55.48
2019-05-10T03:41:57.379Z,50.35
2019-05-10T03:44:27.092Z,53.68
2019-05-10T03:46:56.817Z,58.23
2019-05-10T03:49:27.353Z,54.50
2019-05-10T03:51:57.687Z,60.40
2019-05-10T03:54:27.204Z,59.13
2019-05-10T03:57:12.264Z,55.90
2019-05-10T04:01:57.529Z,53.45
2019-05-10T04:04:27.275Z,53.80
2019-05-10T04:06:56.826Z,51.18
2019-05-10T04:09:26.391Z,51.90
2019-05-10T04:11:56.007Z,54.75
2019-05-10T04:14:25.574Z,53.13
2019-05-10T04:16:56.673Z,56.40
2019-05-10T04:19:26.353Z,52.53
2019-05-10T04:21:55.925Z,56.18
2019-05-10T04:24:25.430Z,55.60
2019-05-10T04:26:57.732Z,56.08
2019-05-10T04:29:27.361Z,57.33
2019-05-10T04:31:57.026Z,56.08
2019-05-10T04:34:26.661Z,54.30
2019-05-10T04:36:56.294Z,52.05
2019-05-10T04:39:25.810Z,48.20
2019-05-10T04:41:55.464Z,46.28
2019-05-10T04:44:24.987Z,46.20
2019-05-10T04:46:54.879Z,53.50
2019-05-10T04:49:24.633Z,50.75
2019-05-10T04:51:54.438Z,42.88
2019-05-10T04:54:24.044Z,44.58
2019-05-10T04:56:53.711Z,40.43
2019-05-10T04:59:23.285Z,38.73
2019-05-10T05:01:52.876Z,39.95
2019-05-10T05:04:22.432Z,39.25
2019-05-10T05:06:51.995Z,44.88
2019-05-10T05:09:21.607Z,41.10
2019-05-10T05:11:51.154Z,41.68
2019-05-10T05:14:20.814Z,38.90
2019-05-10T05:16:50.411Z,37.60
2019-05-10T05:19:20.028Z,42.33
2019-05-10T05:21:49.654Z,37.67
2019-05-10T05:24:23.000Z,31.87
2019-05-10T05:26:51.390Z,32.85
2019-05-10T05:29:20.922Z,27.22
2019-05-10T05:31:53.999Z,30.20
2019-05-10T05:34:21.697Z,31.40
2019-05-10T05:36:51.300Z,30.55
2019-05-10T05:39:20.920Z,30.70
2019-05-10T05:41:52.187Z,30.10
2019-05-10T05:44:26.077Z,33.92
2019-05-10T05:46:53.049Z,27.25
2019-05-10T05:49:22.624Z,26.33
2019-05-10T05:51:52.219Z,30.25
2019-05-10T05:54:22.665Z,30.08
2019-05-10T05:56:53.127Z,28.27
2019-05-10T05:59:26.188Z,26.77
2019-05-10T06:01:54.135Z,27.50
2019-05-10T06:04:23.743Z,28.00
2019-05-10T06:06:53.613Z,28.52
2019-05-10T06:11:53.467Z,29.27
2019-05-10T06:14:23.202Z,31.30
2019-05-10T06:16:53.097Z,28.98
2019-05-10T06:19:29.462Z,26.70
2019-05-10T06:21:57.876Z,28.40
2019-05-10T06:26:58.217Z,23.07
2019-05-10T06:31:54.382Z,29.40
2019-05-10T06:34:23.950Z,31.57
2019-05-10T06:36:53.615Z,28.85
2019-05-10T06:39:23.060Z,30.20
2019-05-10T06:41:56.194Z,27.35
2019-05-10T06:44:24.944Z,24.45
2019-05-10T06:46:55.059Z,23.85
2019-05-10T06:49:24.696Z,26.25
2019-05-10T06:51:54.374Z,24.95
2019-05-10T06:54:24.227Z,22.13
2019-05-10T06:56:53.875Z,26.52
2019-05-10T06:59:24.912Z,28.35
2019-05-10T07:01:54.974Z,32.40
2019-05-10T07:04:24.672Z,23.05
2019-05-10T07:06:54.801Z,22.52
2019-05-10T07:09:24.312Z,24.10
2019-05-10T07:11:53.902Z,26.00
2019-05-10T07:14:27.157Z,26.20
2019-05-10T07:19:28.611Z,27.07
2019-05-10T07:24:27.092Z,31.75
2019-05-10T07:29:29.963Z,25.00
2019-05-10T07:31:58.597Z,27.65
2019-05-10T07:34:28.202Z,26.20
2019-05-10T07:37:01.703Z,23.38
2019-05-10T07:42:00.490Z,22.10
2019-05-10T07:44:30.223Z,23.38
2019-05-10T07:46:59.892Z,28.05
2019-05-10T07:49:32.329Z,24.50
2019-05-10T07:54:31.294Z,24.07
2019-05-10T07:57:01.093Z,26.15
2019-05-10T07:59:37.091Z,24.37
2019-05-10T08:04:33.534Z,26.57
2019-05-10T08:07:07.169Z,26.35
2019-05-10T08:09:37.238Z,23.22
2019-05-10T08:14:35.258Z,29.82
2019-05-10T08:17:06.339Z,22.10
2019-05-10T08:22:09.237Z,26.60
2019-05-10T08:24:38.246Z,24.85
2019-05-10T08:27:12.398Z,21.73
2019-05-10T08:32:08.035Z,20.00
2019-05-10T08:34:39.409Z,24.87
2019-05-10T08:39:45.652Z,21.85
2019-05-10T08:42:32.144Z,20.08
2019-05-10T08:44:42.768Z,17.60
2019-05-10T08:47:20.675Z,20.32
2019-05-10T08:52:14.251Z,20.05
2019-05-10T08:54:43.804Z,22.22
2019-05-10T08:57:18.533Z,21.37
2019-05-10T08:59:44.838Z,19.92
2019-05-10T09:02:14.634Z,22.27
2019-05-10T09:04:49.905Z,23.15
2019-05-10T09:07:15.583Z,19.70
2019-05-10T09:09:49.701Z,18.98
2019-05-10T09:14:48.461Z,19.77
2019-05-10T09:17:23.568Z,19.98
2019-05-10T09:19:47.845Z,19.55
2019-05-10T09:22:17.519Z,19.25
2019-05-10T09:24:48.970Z,17.25
2019-05-10T09:27:18.784Z,19.95
2019-05-10T09:29:48.535Z,19.30
2019-05-10T09:32:23.404Z,15.13
2019-05-10T09:34:54.055Z,20.23
2019-05-10T09:37:22.810Z,14.40
2019-05-10T09:40:04.229Z,13.62
2019-05-10T09:42:26.523Z,14.10
2019-05-10T09:44:55.444Z,16.75
2019-05-10T09:47:25.179Z,14.60
2019-05-10T09:49:58.823Z,12.53
2019-05-10T09:52:26.386Z,13.58
2019-05-10T09:54:56.965Z,12.33
2019-05-10T09:57:32.100Z,11.70
2019-05-10T10:00:01.513Z,12.28
2019-05-10T10:02:33.798Z,12.05
2019-05-10T10:05:02.665Z,14.03
2019-05-10T10:07:33.590Z,20.60
2019-05-10T10:10:07.388Z,11.55
2019-05-10T10:12:37.422Z,15.20
2019-05-10T10:15:09.568Z,10.77
2019-05-10T10:17:42.398Z,10.58
2019-05-10T10:22:38.836Z,7.65
2019-05-10T10:25:10.090Z,10.78
2019-05-10T10:27:47.901Z,9.45
2019-05-10T10:30:21.497Z,8.43
2019-05-10T10:32:50.503Z,9.60
2019-05-10T10:35:26.584Z,10.78
2019-05-10T10:37:52.042Z,9.00
2019-05-10T10:40:21.835Z,8.20
2019-05-10T10:42:53.384Z,8.30
2019-05-10T10:45:23.055Z,7.90
2019-05-10T10:47:57.298Z,7.28
2019-05-10T10:50:27.520Z,7.90
2019-05-10T10:52:57.576Z,8.55
2019-05-10T10:55:34.767Z,7.58
2019-05-10T10:58:01.364Z,5.00
2019-05-10T11:00:33.269Z,6.60
2019-05-10T11:03:04.176Z,6.42
2019-05-10T11:05:34.051Z,10.78
2019-05-10T11:08:03.733Z,6.90
2019-05-10T11:10:33.491Z,8.98
2019-05-10T11:13:11.981Z,6.75
2019-05-10T11:15:41.994Z,7.45
2019-05-10T11:18:12.644Z,5.05
2019-05-10T11:20:49.536Z,6.72
2019-05-10T11:23:16.239Z,6.97
2019-05-10T11:28:15.852Z,7.37
2019-05-10T11:30:45.722Z,7.22
2019-05-10T11:33:26.010Z,7.05
2019-05-10T11:35:51.408Z,5.08
2019-05-10T11:38:21.493Z,5.40
2019-05-10T11:40:51.281Z,5.63
2019-05-10T11:43:26.804Z,5.92
2019-05-10T11:45:54.327Z,7.15
2019-05-10T11:48:28.957Z,6.97
2019-05-10T11:50:55.357Z,6.58
2019-05-10T11:53:25.177Z,4.85
2019-05-10T11:55:54.868Z,5.78
2019-05-10T11:58:25.640Z,5.30
2019-05-10T12:01:00.365Z,5.90
2019-05-10T12:03:35.106Z,6.67
2019-05-10T12:08:41.548Z,8.70
2019-05-10T12:11:25.398Z,4.42
2019-05-10T12:13:42.480Z,5.55
2019-05-10T12:16:16.795Z,5.67
2019-05-10T12:23:50.651Z,4.03
2019-05-10T12:26:18.785Z,4.55
2019-05-10T12:26:50.371Z,5.50
2019-05-10T12:28:51.011Z,5.67
2019-05-10T12:31:23.216Z,5.05
2019-05-10T12:33:52.956Z,3.17
2019-05-10T12:36:27.692Z,7.33
2019-05-10T12:38:58.968Z,5.55
2019-05-10T12:44:03.307Z,4.83
2019-05-10T12:46:30.720Z,5.28
2019-05-10T12:49:04.582Z,3.12
2019-05-10T12:51:32.725Z,4.35
2019-05-10T12:54:02.463Z,5.08
2019-05-10T12:56:35.050Z,4.20
2019-05-10T12:59:03.574Z,4.75
2019-05-10T13:01:33.341Z,5.05
2019-05-10T13:04:13.433Z,4.17
2019-05-10T13:09:04.563Z,4.20
2019-05-10T13:14:07.330Z,4.87
2019-05-10T13:19:04.328Z,4.87
2019-05-10T13:21:34.057Z,2.72
2019-05-10T13:24:03.926Z,4.00
2019-05-10T13:26:33.537Z,2.17
2019-05-10T13:29:07.911Z,3.10
2019-05-10T13:31:41.745Z,5.25
2019-05-10T13:34:05.820Z,6.37
2019-05-10T13:36:37.670Z,3.80
2019-05-10T13:39:09.124Z,5.55
2019-05-10T13:41:38.850Z,4.85
2019-05-10T13:44:08.389Z,4.10
2019-05-10T13:46:38.218Z,4.03
2019-05-10T13:49:07.946Z,4.85
2019-05-10T13:51:37.625Z,6.08
2019-05-10T13:54:07.323Z,3.02
2019-05-10T13:56:37.043Z,7.10
2019-05-10T13:59:15.844Z,4.03
2019-05-10T14:01:38.180Z,3.33
2019-05-10T14:04:07.682Z,3.25
2019-05-10T14:06:37.396Z,2.77
2019-05-10T14:09:07.966Z,3.37
2019-05-10T14:11:40.381Z,2.45
2019-05-10T14:14:14.666Z,3.20
2019-05-10T14:16:40.413Z,2.30
2019-05-10T14:19:10.294Z,2.87
2019-05-10T14:21:39.997Z,2.72
2019-05-10T14:24:15.270Z,2.60
2019-05-10T14:26:41.063Z,4.22
2019-05-10T14:29:11.310Z,4.00
2019-05-10T14:31:41.138Z,1.75
2019-05-10T14:34:15.584Z,2.80
2019-05-10T14:36:43.536Z,5.72
2019-05-10T14:39:16.099Z,6.45
2019-05-10T14:41:51.048Z,7.72
2019-05-10T14:44:17.177Z,5.37
2019-05-10T14:46:46.859Z,24.25
2019-05-10T14:49:16.372Z,7.53
2019-05-10T14:51:58.266Z,10.43
2019-05-10T14:54:17.310Z,4.78
2019-05-10T14:56:47.090Z,4.45
2019-05-10T15:01:46.661Z,2.70
2019-05-10T15:04:20.104Z,6.70
2019-05-10T15:06:47.983Z,2.85
2019-05-10T15:09:21.710Z,4.62
2019-05-10T15:11:48.787Z,7.30
2019-05-10T15:14:18.448Z,3.50
2019-05-10T15:16:48.182Z,4.90
2019-05-10T15:19:18.079Z,3.70
2019-05-10T15:21:47.919Z,7.12
2019-05-10T15:24:17.704Z,18.60
2019-05-10T15:26:47.318Z,4.40
2019-05-10T15:29:22.345Z,3.58
2019-05-10T15:31:49.466Z,8.23
2019-05-10T15:34:19.354Z,7.17
2019-05-10T15:36:48.997Z,1.90
2019-05-10T15:39:23.194Z,2.15
2019-05-10T15:41:53.677Z,4.97
2019-05-10T15:44:30.433Z,4.67
2019-05-10T15:46:53.291Z,6.80
2019-05-10T15:49:24.459Z,3.75
2019-05-10T15:51:56.887Z,5.03
2019-05-10T15:54:25.517Z,4.87
2019-05-10T15:56:56.221Z,4.67
2019-05-10T15:59:25.752Z,6.97
2019-05-10T16:01:55.560Z,4.80
2019-05-10T16:04:25.266Z,5.28
2019-05-10T16:06:55.183Z,5.40
2019-05-10T16:09:24.861Z,5.17
2019-05-10T16:11:55.929Z,5.35
2019-05-10T16:14:26.512Z,5.00
2019-05-10T16:16:57.274Z,3.95
2019-05-10T16:19:27.172Z,4.33
2019-05-10T16:21:58.236Z,4.05
2019-05-10T16:27:00.080Z,3.15
2019-05-10T16:29:33.763Z,5.42
2019-05-10T16:32:02.745Z,7.40
2019-05-10T16:34:34.204Z,7.00
2019-05-10T16:37:03.937Z,3.17
2019-05-10T16:39:33.636Z,3.75
2019-05-10T16:42:03.418Z,4.05
2019-05-10T16:44:32.965Z,8.10
2019-05-10T16:47:02.596Z,8.03
2019-05-10T16:49:32.310Z,5.80
2019-05-10T16:52:01.959Z,3.65
2019-05-10T16:54:31.647Z,6.10
2019-05-10T16:57:01.791Z,5.15
2019-05-10T16:59:35.015Z,5.45
2019-05-10T17:02:06.731Z,9.20
2019-05-10T17:04:39.654Z,7.53
2019-05-10T17:07:12.943Z,8.00
2019-05-10T17:09:39.992Z,5.25
2019-05-10T17:12:09.716Z,6.50
2019-05-10T17:14:39.513Z,5.85
2019-05-10T17:17:09.870Z,4.80
2019-05-10T17:19:39.646Z,8.27
2019-05-10T17:22:09.347Z,8.18
2019-05-10T17:24:39.116Z,6.67
2019-05-10T17:27:09.861Z,9.33
2019-05-10T17:29:39.619Z,8.20
2019-05-10T17:32:09.321Z,4.72
2019-05-10T17:34:39.073Z,6.60
2019-05-10T17:37:09.015Z,4.75
2019-05-10T17:39:38.733Z,11.78
2019-05-10T17:42:08.512Z,6.85
2019-05-10T17:44:38.117Z,4.35
2019-05-10T17:47:07.917Z,5.97
2019-05-10T17:49:37.921Z,8.35
2019-05-10T17:52:07.711Z,4.28
2019-05-10T17:54:39.351Z,9.15
2019-05-10T17:57:10.539Z,6.35
2019-05-10T17:59:40.341Z,7.33
2019-05-10T18:02:10.447Z,7.25
2019-05-10T18:04:43.439Z,10.03
2019-05-10T18:07:13.162Z,7.05
2019-05-10T18:09:45.998Z,8.63
2019-05-10T18:12:20.328Z,7.53
2019-05-10T18:14:55.821Z,8.45
2019-05-10T18:17:32.448Z,12.05
2019-05-10T18:20:03.829Z,10.43
2019-05-10T18:25:05.479Z,8.18
2019-05-10T18:27:35.613Z,7.50
2019-05-10T18:30:07.223Z,9.68
2019-05-10T18:32:37.250Z,8.65
2019-05-10T18:35:14.705Z,7.87
2019-05-10T18:37:39.530Z,9.83
2019-05-10T18:40:09.647Z,8.58
2019-05-10T18:42:39.327Z,7.20
2019-05-10T18:45:09.125Z,8.10
2019-05-10T18:47:38.924Z,7.08
2019-05-10T18:50:09.037Z,9.03
2019-05-10T18:52:38.767Z,6.33
2019-05-10T18:55:08.670Z,5.40
2019-05-10T18:57:38.434Z,8.88
2019-05-10T19:00:08.945Z,8.73
2019-05-10T19:02:38.760Z,7.08
2019-05-10T19:05:08.845Z,11.10
2019-05-10T19:07:38.823Z,11.78
2019-05-10T19:10:09.086Z,18.32
2019-05-10T19:12:39.020Z,13.95
2019-05-10T19:15:15.144Z,16.48
2019-05-10T19:17:45.982Z,15.23
2019-05-10T19:22:43.001Z,13.08
2019-05-10T19:25:14.492Z,13.72
2019-05-10T19:27:50.237Z,9.63
2019-05-10T19:32:51.201Z,10.85
2019-05-10T19:35:17.280Z,12.25
2019-05-10T19:37:48.057Z,10.23
2019-05-10T19:40:17.874Z,15.38
2019-05-10T19:42:49.565Z,12.10
2019-05-10T19:47:49.807Z,11.25
2019-05-10T19:52:51.031Z,13.50
2019-05-10T19:55:21.757Z,19.48
2019-05-10T19:57:54.784Z,13.98
2019-05-10T20:02:52.769Z,14.58
2019-05-10T20:05:22.523Z,20.37
2019-05-10T20:07:52.221Z,18.25
2019-05-10T20:10:21.827Z,21.93
2019-05-10T20:12:51.488Z,21.48
2019-05-10T20:15:21.196Z,27.00
2019-05-10T20:17:51.262Z,27.93
2019-05-10T20:20:20.952Z,28.32
2019-05-10T20:22:50.706Z,30.77
2019-05-10T20:25:20.366Z,38.45
2019-05-10T20:27:50.022Z,32.70
2019-05-10T20:30:19.894Z,24.50
2019-05-10T20:32:50.593Z,26.60
2019-05-10T20:35:20.446Z,30.00
2019-05-10T20:38:01.479Z,20.62
2019-05-10T20:40:21.399Z,16.82
2019-05-10T20:42:51.041Z,15.25
2019-05-10T20:45:20.683Z,15.40
2019-05-10T20:47:50.254Z,12.30
2019-05-10T20:50:21.494Z,10.95
2019-05-10T20:52:51.187Z,15.45
2019-05-10T20:55:20.809Z,12.25
2019-05-10T20:57:53.691Z,13.43
2019-05-10T21:00:28.547Z,16.87
2019-05-10T21:03:07.451Z,11.48
2019-05-10T21:05:39.022Z,13.10
2019-05-10T21:08:16.572Z,16.30
2019-05-10T21:10:40.348Z,14.47
2019-05-10T21:13:10.091Z,12.43
2019-05-10T21:15:39.783Z,12.05
2019-05-10T21:18:09.517Z,11.43
2019-05-10T21:20:39.210Z,15.58
2019-05-10T21:23:08.783Z,11.83
2019-05-10T21:25:38.509Z,15.05
2019-05-10T21:28:08.291Z,10.05
2019-05-10T21:30:37.966Z,13.38
2019-05-10T21:33:07.700Z,15.23
2019-05-10T21:35:37.397Z,14.25
2019-05-10T21:38:07.086Z,14.40
2019-05-10T21:40:38.571Z,9.00
2019-05-10T21:43:08.291Z,11.63
2019-05-10T21:45:38.090Z,11.93
2019-05-10T21:48:07.639Z,10.05
2019-05-10T21:50:37.379Z,10.13
2019-05-10T21:53:08.116Z,12.63
2019-05-10T21:55:37.904Z,10.18
2019-05-10T21:58:07.812Z,8.80
2019-05-10T22:00:39.158Z,11.20
2019-05-10T22:03:09.056Z,8.40
2019-05-10T22:05:39.115Z,15.83
2019-05-10T22:08:08.877Z,15.35
2019-05-10T22:10:38.580Z,11.15
2019-05-10T22:13:08.323Z,13.13
2019-05-10T22:15:38.077Z,12.63
2019-05-10T22:18:07.723Z,13.72
2019-05-10T22:20:37.728Z,14.53
2019-05-10T22:23:07.366Z,12.45
2019-05-10T22:25:37.332Z,10.32
2019-05-10T22:28:07.067Z,10.85
2019-05-10T22:30:36.765Z,15.08
2019-05-10T22:33:06.310Z,11.18
2019-05-10T22:35:35.895Z,14.87
2019-05-10T22:38:05.737Z,10.28
2019-05-10T22:40:35.348Z,13.15
2019-05-10T22:43:05.230Z,16.57
2019-05-10T22:45:34.932Z,14.65
2019-05-10T22:48:04.556Z,12.03
2019-05-10T22:50:34.144Z,12.90
2019-05-10T22:53:03.844Z,11.95
2019-05-10T22:55:33.532Z,19.48
2019-05-10T22:58:03.236Z,13.60
2019-05-10T23:00:32.920Z,18.30
2019-05-10T23:03:02.621Z,12.53
2019-05-10T23:05:32.219Z,13.50
2019-05-10T23:08:01.856Z,16.02
2019-05-10T23:10:31.487Z,11.80
2019-05-10T23:13:01.096Z,13.60
2019-05-10T23:15:30.742Z,12.95
2019-05-10T23:18:00.277Z,16.12
2019-05-10T23:20:29.960Z,15.48
2019-05-10T23:22:59.669Z,13.68
2019-05-10T23:25:29.339Z,15.55
2019-05-10T23:27:58.844Z,14.83
2019-05-10T23:30:28.477Z,11.03
2019-05-10T23:32:58.091Z,18.25
2019-05-10T23:35:27.744Z,19.60
2019-05-10T23:37:57.442Z,16.48
2019-05-10T23:40:27.023Z,16.87
2019-05-10T23:42:56.627Z,17.65
2019-05-10T23:45:26.319Z,19.25
2019-05-10T23:47:56.084Z,17.00
2019-05-10T23:50:25.639Z,14.43
2019-05-10T23:52:55.191Z,17.30
2019-05-10T23:55:24.812Z,21.70
2019-05-10T23:57:54.360Z,13.83
